• Join FlightAware (Why Join?)
  • Login
  • US Flag 
02:07AM EST


 

Airport Tracker/Info


-or-


 

Live Flight TrackerFlight Track Log ✈ N42TX ✈ 09-May-2013 ✈ KMLT - KBED

Flight Track Log - Related Links

Times and Time Zones

All times are in EDT time to prevent confusion due to time zone crossing. See the N42TX flight status page for this flight to view local times or setup timezone preferences in your user account.

Time Position Orientation Groundspeed Altitude Reporting Facility
EDT Latitude Longitude Course Direction KTS MPH feet Rate Location/Type
01:50PM 42.6620 -71.0830 37° Northeast 147 169 5,000  Level FlightAware
01:50PM 42.6790 -71.0660 36° Northeast 147 169 5,000  Level FlightAware
01:51PM 42.6960 -71.0480 38° Northeast 147 169 5,000  Level FlightAware
01:51PM 42.7100 -71.0330 38° Northeast 145 167 5,000  Level FlightAware
01:52PM 42.7260 -71.0170 36° Northeast 145 167 5,000  Level FlightAware
01:52PM 42.7410 -71.0020 36° Northeast 156 180 5,000  Level FlightAware
01:52PM 42.7500 -70.9940 33° Northeast 160 184 5,000  Level FlightAware
01:53PM 42.7680 -70.9770 35° Northeast 157 181 5,000  Level FlightAware
01:53PM 42.7860 -70.9600 35° Northeast 153 176 5,000  Level FlightAware
01:54PM 42.8030 -70.9460 31° Northeast 154 177 5,000  Level FlightAware
01:54PM 42.8210 -70.9300 33° Northeast 159 183 5,000  Level FlightAware
01:55PM 42.8370 -70.9170 31° Northeast 152 175 5,000  Level FlightAware
01:55PM 42.8550 -70.9010 33° Northeast 153 176 5,000  Level FlightAware
01:56PM 42.8740 -70.8860 30° Northeast 152 175 5,000  Level FlightAware
01:56PM 42.8900 -70.8730 31° Northeast 152 175 5,000  Level FlightAware
01:56PM 42.8990 -70.8650 33° Northeast 149 171 5,000  Level FlightAware
01:57PM 42.9180 -70.8490 32° Northeast 148 170 5,000  Level FlightAware
01:57PM 42.9310 -70.8370 34° Northeast 147 169 5,000  Level FlightAware
01:58PM 42.9480 -70.8220 33° Northeast 143 165 5,000  Level FlightAware
01:58PM 42.9630 -70.8090 32° Northeast 143 165 5,000 180 Level FlightAware
01:59PM 42.9800 -70.7950 31° Northeast 149 171 5,200 600 Climbing FlightAware
01:59PM 42.9940 -70.7830 32° Northeast 149 171 5,600 960 Climbing FlightAware
02:00PM 43.0120 -70.7690 30° Northeast 148 170 6,100 960 Climbing FlightAware
02:00PM 43.0300 -70.7540 31° Northeast 149 171 6,600 960 Climbing FlightAware
02:01PM 43.0450 -70.7410 32° Northeast 151 174 7,000 840 Climbing FlightAware
02:01PM 43.0630 -70.7260 31° Northeast 150 173 7,400 840 Climbing FlightAware
02:01PM 43.0770 -70.7150 30° Northeast 149 171 7,800 840 Climbing FlightAware
02:02PM 43.0950 -70.7000 31° Northeast 154 177 8,200 780 Climbing FlightAware
02:02PM 43.1140 -70.6850 30° Northeast 157 181 8,600 840 Climbing FlightAware
02:03PM 43.1300 -70.6730 29° Northeast 160 184 9,000 420 Climbing FlightAware
02:03PM 43.1520 -70.6560 29° Northeast 182 209 9,000  Level FlightAware
02:04PM 43.1690 -70.6410 33° Northeast 189 217 9,000  Level FlightAware
02:04PM 43.1910 -70.6240 29° Northeast 179 206 9,000  Level FlightAware
02:05PM 43.2130 -70.6060 31° Northeast 176 203 9,000  Level FlightAware
02:05PM 43.2310 -70.5920 30° Northeast 175 201 9,000  Level FlightAware
02:06PM 43.2510 -70.5750 32° Northeast 176 203 9,000  Level FlightAware
02:06PM 43.2730 -70.5580 29° Northeast 174 200 9,000  Level FlightAware
02:07PM 43.2900 -70.5450 29° Northeast 174 200 9,000  Level FlightAware
02:07PM 43.3110 -70.5280 30° Northeast 173 199 9,000  Level FlightAware
02:08PM 43.3270 -70.5140 32° Northeast 174 200 9,000  Level FlightAware
02:08PM 43.3490 -70.4960 31° Northeast 175 201 9,000  Level FlightAware
02:08PM 43.3660 -70.4830 29° Northeast 176 203 9,000  Level FlightAware
02:09PM 43.3780 -70.4730 31° Northeast 176 203 9,000  Level FlightAware
02:09PM 43.3990 -70.4550 32° Northeast 179 206 9,000  Level FlightAware
02:10PM 43.4200 -70.4380 30° Northeast 179 206 9,000  Level FlightAware
02:10PM 43.4370 -70.4240 31° Northeast 179 206 9,000  Level FlightAware
02:11PM 43.4590 -70.4080 28° Northeast 181 208 9,000  Level FlightAware
02:11PM 43.4670 -70.4020 29° Northeast 180 207 9,000  Level FlightAware
02:11PM 43.4890 -70.3850 29° Northeast 182 209 9,000  Level FlightAware
02:12PM 43.5170 -70.3650 27° Northeast 173 199 9,000  Level FlightAware
02:12PM 43.5390 -70.3470 31° Northeast 182 209 9,000  Level FlightAware
02:13PM 43.5610 -70.3310 28° Northeast 184 212 9,000  Level FlightAware
02:14PM 43.5880 -70.3110 28° Northeast 184 212 9,000  Level FlightAware
02:14PM 43.5950 -70.3060 27° Northeast 184 212 9,000  Level FlightAware
02:14PM 43.6140 -70.2920 28° Northeast 184 212 9,000  Level FlightAware
02:15PM 43.6330 -70.2780 28° Northeast 184 212 9,000  Level FlightAware
02:15PM 43.6540 -70.2610 30° Northeast 188 216 9,000  Level FlightAware
02:16PM 43.6850 -70.2380 28° Northeast 188 216 9,000  Level FlightAware
02:16PM 43.7050 -70.2230 28° Northeast 188 216 9,000  Level FlightAware
02:16PM 43.7110 -70.2180 31° Northeast 188 216 9,000  Level FlightAware
02:17PM 43.7310 -70.2040 27° Northeast 188 216 9,000  Level FlightAware
02:17PM 43.7440 -70.1940 29° Northeast 188 216 9,000 -60 Level FlightAware
02:20PM 43.6781 -70.2520 212° Southwest  Level Estimated
02:21PM 43.6494 -70.2772 212° Southwest  Level Estimated
02:22PM 43.6208 -70.3023 212° Southwest  Level Estimated
02:23PM 43.5921 -70.3274 212° Southwest  Level Estimated
02:24PM 43.5634 -70.3525 212° Southwest  Level Estimated
02:25PM 43.5348 -70.3776 212° Southwest  Level Estimated
02:26PM 43.5061 -70.4027 212° Southwest  Level Estimated
02:27PM 43.4774 -70.4277 212° Southwest  Level Estimated
02:28PM 43.4487 -70.4527 212° Southwest  Level Estimated
02:29PM 43.4200 -70.4777 212° Southwest  Level Estimated
02:30PM 43.3913 -70.5026 212° Southwest  Level Estimated
02:31PM 43.3626 -70.5276 212° Southwest  Level Estimated
02:32PM 43.3338 -70.5525 212° Southwest  Level Estimated
02:33PM 43.3051 -70.5774 212° Southwest  Level Estimated
02:34PM 43.2764 -70.6023 212° Southwest  Level Estimated
02:35PM 43.2477 -70.6271 212° Southwest  Level Estimated
02:36PM 43.2189 -70.6519 212° Southwest  Level Estimated
02:37PM 43.1902 -70.6767 212° Southwest  Level Estimated
02:38PM 43.1614 -70.7015 212° Southwest  Level Estimated
02:39PM 43.1327 -70.7262 212° Southwest  Level Estimated
02:40PM 43.1039 -70.7510 212° Southwest  Level Estimated
02:40PM 44.7570 -69.2190 212° Southwest 191 220 8,900  Level FlightAware
02:41PM 43.0751 -70.7757 212° Southwest  Level Estimated
02:41PM 44.7870 -69.1910 34° Northeast 190 219 8,900  Level FlightAware
02:42PM 44.8130 -69.1670 33° Northeast 190 219 8,900  Level FlightAware
02:42PM 44.8340 -69.1470 34° Northeast 189 217 8,900  Level FlightAware
02:43PM 44.8530 -69.1300 32° Northeast 191 220 8,900  Level FlightAware
02:43PM 44.8750 -69.1090 34° Northeast 190 219 8,900  Level FlightAware
02:43PM 44.8930 -69.0920 34° Northeast 183 211 8,900  Level FlightAware
02:44PM 44.9030 -69.0820 35° Northeast 180 207 8,900  Level FlightAware
02:44PM 44.9240 -69.0630 33° Northeast 168 193 8,900  Level FlightAware
02:45PM 44.9390 -69.0490 33° Northeast 161 185 8,900  Level FlightAware
02:45PM 44.9580 -69.0310 34° Northeast 162 186 8,900  Level FlightAware
02:46PM 44.9780 -69.0120 34° Northeast 170 196 8,900  Level FlightAware
02:46PM 44.9940 -68.9980 32° Northeast 173 199 8,900  Level FlightAware
02:46PM 45.0010 -68.9910 35° Northeast 173 199 8,900  Level FlightAware
02:47PM 45.0240 -68.9690 34° Northeast 179 206 8,900  Level FlightAware
02:47PM 45.0420 -68.9520 34° Northeast 183 211 8,900 120 Level FlightAware
02:47PM 45.0510 -68.9430 35° Northeast 181 208 9,000 120 Climbing FlightAware
02:48PM 45.0720 -68.9240 33° Northeast 183 211 9,000  Level FlightAware
02:48PM 45.0910 -68.9060 34° Northeast 186 214 9,000  Level FlightAware
02:49PM 45.1020 -68.8960 33° Northeast 187 215 9,000  Level FlightAware
02:49PM 45.1240 -68.8750 34° Northeast 187 215 9,000  Level FlightAware
02:49PM 45.1330 -68.8660 35° Northeast 187 215 9,000  Level FlightAware
02:50PM 45.1520 -68.8480 34° Northeast 186 214 9,000  Level FlightAware
02:50PM 45.1630 -68.8380 33° Northeast 186 214 9,000  Level FlightAware
02:51PM 45.1840 -68.8180 34° Northeast 185 213 9,000  Level FlightAware
02:51PM 45.2130 -68.7900 34° Northeast 185 213 9,000 -120 Level FlightAware
02:52PM 45.2340 -68.7700 34° Northeast 180 207 8,900 -420 Descending FlightAware
02:52PM 45.2440 -68.7610 32° Northeast 182 209 8,700 -780 Descending FlightAware
02:53PM 45.2710 -68.7350 34° Northeast 188 216 8,200 -840 Descending FlightAware
02:53PM 45.2910 -68.7160 34° Northeast 189 217 7,800 -540 Descending FlightAware
02:54PM 45.3150 -68.6940 33° Northeast 189 217 7,700 -120 Descending FlightAware
02:56PM 45.2621 -68.7451 214° Southwest  Level Estimated
02:57PM 45.2340 -68.7722 214° Southwest  Level Estimated
02:58PM 45.2059 -68.7993 214° Southwest  Level Estimated
02:59PM 45.1778 -68.8263 214° Southwest  Level Estimated
03:00PM 45.1497 -68.8533 214° Southwest  Level Estimated
03:01PM 45.1216 -68.8803 214° Southwest  Level Estimated
03:02PM 45.0935 -68.9073 214° Southwest  Level Estimated
03:03PM 45.0653 -68.9342 214° Southwest  Level Estimated
03:04PM 45.0372 -68.9611 214° Southwest  Level Estimated
03:05PM 45.0091 -68.9880 214° Southwest  Level Estimated
03:06PM 44.9809 -69.0148 214° Southwest  Level Estimated
03:07PM 44.9528 -69.0417 214° Southwest  Level Estimated
03:08PM 44.9246 -69.0685 214° Southwest  Level Estimated
03:09PM 44.8964 -69.0952 214° Southwest  Level Estimated
03:10PM 44.8683 -69.1220 214° Southwest  Level Estimated
03:11PM 44.8401 -69.1487 214° Southwest  Level Estimated
03:12PM 44.8119 -69.1754 214° Southwest  Level Estimated
03:13PM 44.7837 -69.2021 214° Southwest  Level Estimated
03:14PM 44.7555 -69.2287 214° Southwest  Level Estimated
03:15PM 44.7273 -69.2553 214° Southwest  Level Estimated
03:16PM 44.6991 -69.2819 214° Southwest  Level Estimated
03:17PM 44.6709 -69.3085 214° Southwest  Level Estimated
03:18PM 44.6427 -69.3350 214° Southwest  Level Estimated
03:19PM 44.6144 -69.3616 214° Southwest  Level Estimated
03:20PM 44.5862 -69.3880 214° Southwest  Level Estimated
03:21PM 44.5579 -69.4145 214° Southwest  Level Estimated
03:22PM 44.5297 -69.4409 214° Southwest  Level Estimated
03:23PM 44.5014 -69.4674 214° Southwest  Level Estimated
03:24PM 44.4732 -69.4938 214° Southwest  Level Estimated
03:25PM 44.4449 -69.5201 214° Southwest  Level Estimated
03:26PM 44.4166 -69.5464 214° Southwest  Level Estimated
03:27PM 44.3884 -69.5728 214° Southwest  Level Estimated
03:28PM 44.3601 -69.5990 214° Southwest  Level Estimated
03:29PM 44.3318 -69.6253 214° Southwest  Level Estimated
03:30PM 44.3035 -69.6515 214° Southwest  Level Estimated
03:31PM 44.2752 -69.6777 214° Southwest  Level Estimated
03:33PM 45.5533 -68.7114 188° South 161 185 3,900  Level Boston Center
03:34PM 45.5231 -68.7369 211° Southwest 146 168 5,000 1,080 Climbing Boston Center
03:35PM 45.4947 -68.7656 215° Southwest 133 153 6,100 1,080 Climbing Boston Center
03:36PM 45.4664 -68.7911 212° Southwest 133 153 7,200 1,140 Climbing Boston Center
03:37PM 45.4339 -68.8197 212° Southwest 133 153 8,400 1,200 Climbing Boston Center
03:38PM 45.4033 -68.8453 210° Southwest 133 153 9,600 1,020 Climbing Boston Center
03:39PM 45.3750 -68.8708 212° Southwest 133 153 10,500 900 Climbing Boston Center
03:40PM 45.3428 -68.9022 214° Southwest 138 159 11,500 480 Climbing Boston Center
03:46PM 45.1080 -69.1070 214° Southwest 170 196 14,000 360 Climbing FlightAware
03:47PM 45.0790 -69.1330 212° Southwest 171 197 14,000  Level FlightAware
03:48PM 45.0540 -69.1650 222° Southwest 171 197 14,000  Level FlightAware
03:48PM 45.0310 -69.1980 225° Southwest 171 197 14,000  Level FlightAware
03:49PM 45.0130 -69.2220 223° Southwest 172 198 14,000  Level FlightAware
03:50PM 44.9830 -69.2630 224° Southwest 169 194 14,000  Level FlightAware
03:51PM 44.9600 -69.2950 225° Southwest 169 194 14,000  Level FlightAware
03:51PM 44.9340 -69.3300 224° Southwest 171 197 14,000  Level FlightAware
03:52PM 44.9170 -69.3540 225° Southwest 170 196 14,000  Level FlightAware
03:53PM 44.8890 -69.3910 223° Southwest 171 197 14,000  Level FlightAware
03:53PM 44.8630 -69.4270 224° Southwest 172 198 14,000  Level FlightAware
03:54PM 44.8420 -69.4560 224° Southwest 172 198 14,000  Level FlightAware
03:55PM 44.8190 -69.4870 224° Southwest 172 198 14,000  Level FlightAware
03:55PM 44.7990 -69.5140 224° Southwest 172 198 14,000  Level FlightAware
03:56PM 44.7611 -69.5750 224° Southwest 178 205 14,000  Level Boston Center
03:57PM 44.7331 -69.6200 229° Southwest 173 199 14,000  Level Boston Center
03:58PM 44.6989 -69.6714 227° Southwest 173 199 14,000  Level Boston Center
03:59PM 44.6689 -69.7194 229° Southwest 173 199 14,000  Level Boston Center
04:00PM 44.6367 -69.7706 228° Southwest 173 199 14,000  Level Boston Center
04:01PM 44.6067 -69.8244 232° Southwest 173 199 14,000  Level Boston Center
04:02PM 44.5744 -69.8756 229° Southwest 173 199 14,000  Level Boston Center
04:03PM 44.5400 -69.9208 223° Southwest 173 199 14,000  Level Boston Center
04:04PM 44.5036 -69.9658 221° Southwest 173 199 14,000  Level Boston Center
04:05PM 44.4692 -70.0111 223° Southwest 173 199 14,000  Level Boston Center
04:06PM 44.4306 -70.0619 223° Southwest 173 199 14,000  Level Boston Center
04:07PM 44.3961 -70.1069 223° Southwest 173 199 14,000  Level Boston Center
04:08PM 44.3594 -70.1519 221° Southwest 178 205 14,000  Level Boston Center
04:09PM 44.3331 -70.1878 224° Southwest 178 205 14,000  Level Boston Center
04:10PM 44.2903 -70.2417 222° Southwest 173 199 14,000  Level Boston Center
04:11PM 44.2558 -70.2864 223° Southwest 173 199 14,000  Level Boston Center
04:12PM 44.2253 -70.3281 224° Southwest 173 199 14,000  Level Boston Center
04:13PM 44.1867 -70.3758 222° Southwest 173 199 14,000  Level Boston Center
04:14PM 44.1561 -70.4175 224° Southwest 173 199 14,000  Level Boston Center
04:15PM 44.1172 -70.4650 221° Southwest 173 199 14,000  Level Boston Center
04:21PM 43.8800 -70.6350 221° Southwest 164 189 14,000  Level FlightAware
04:22PM 43.8530 -70.6550 208° Southwest 164 189 14,000  Level FlightAware
04:22PM 43.8270 -70.6740 208° Southwest 164 189 14,000  Level FlightAware
04:23PM 43.7960 -70.6970 208° Southwest 163 188 14,000  Level FlightAware
04:24PM 43.7700 -70.7170 209° Southwest 160 184 14,000  Level FlightAware
04:24PM 43.7440 -70.7360 208° Southwest 161 185 14,000  Level FlightAware
04:25PM 43.7140 -70.7580 208° Southwest 167 192 14,000  Level FlightAware
04:26PM 43.6860 -70.7780 207° Southwest 169 194 14,000  Level FlightAware
04:26PM 43.6560 -70.8000 208° Southwest 159 183 14,000  Level FlightAware
04:27PM 43.6290 -70.8200 208° Southwest 155 178 14,000  Level FlightAware
04:28PM 43.6010 -70.8400 207° Southwest 151 174 14,000  Level FlightAware
04:29PM 43.5770 -70.8580 209° Southwest 155 178 14,000  Level FlightAware
04:29PM 43.5510 -70.8770 208° Southwest 154 177 14,000  Level FlightAware
04:30PM 43.5220 -70.8980 208° Southwest 155 178 14,000  Level FlightAware
04:31PM 43.4970 -70.9170 209° Southwest 153 176 14,000  Level FlightAware
04:31PM 43.4720 -70.9350 208° Southwest 153 176 14,000  Level FlightAware
04:32PM 43.4440 -70.9550 207° Southwest 149 171 14,000 -180 Level FlightAware
04:33PM 43.4180 -70.9740 208° Southwest 167 192 13,800 -480 Descending FlightAware
04:33PM 43.3860 -70.9970 208° Southwest 176 203 13,400 -600 Descending FlightAware
04:34PM 43.3560 -71.0190 208° Southwest 183 211 13,000 -600 Descending FlightAware
04:35PM 43.3250 -71.0410 207° Southwest 183 211 12,600 -600 Descending FlightAware
04:36PM 43.2930 -71.0650 209° Southwest 183 211 12,200 -600 Descending FlightAware
04:36PM 43.2590 -71.0740 191° South 186 214 11,800 -600 Descending FlightAware
04:37PM 43.2210 -71.0760 182° South 183 211 11,400 -660 Descending FlightAware
04:38PM 43.1850 -71.0770 181° South 186 214 10,900 -780 Descending FlightAware
04:38PM 43.1520 -71.0790 183° South 186 214 10,400 -900 Descending FlightAware
04:39PM 43.1250 -71.0800 182° South 185 213 9,900 -960 Descending FlightAware
04:39PM 43.1140 -71.0800 180° South 184 212 9,700 -900 Descending FlightAware
04:39PM 43.0930 -71.0810 182° South 184 212 9,300 -900 Descending FlightAware
04:40PM 43.0720 -71.0600 144° Southeast 203 234 8,900 -900 Descending FlightAware
04:40PM 43.0580 -71.0260 119° Southeast 203 234 8,400 -1,020 Descending FlightAware
04:41PM 43.0460 -70.9970 120° Southeast 191 220 8,000 -1,200 Descending FlightAware
04:41PM 43.0400 -70.9830 120° Southeast 186 214 7,600 -1,980 Descending FlightAware
04:42PM 43.0290 -70.9570 120° Southeast 189 217 6,700 -2,100 Descending FlightAware
04:42PM 43.0140 -70.9270 124° Southeast 183 211 5,700 -1,740 Descending FlightAware
04:42PM 43.0040 -70.9230 164° South 166 191 5,400 -1,020 Descending FlightAware
04:43PM 42.9760 -70.9400 204° Southwest 171 197 4,800 -1,020 Descending FlightAware
04:43PM 42.9570 -70.9520 205° Southwest 173 199 4,300 -900 Descending FlightAware
04:44PM 42.9350 -70.9650 203° Southwest 167 192 4,000 -420 Descending FlightAware
04:44PM 42.9260 -70.9720 210° Southwest 158 182 4,000  Level FlightAware
04:45PM 42.9060 -70.9840 204° Southwest 154 177 4,000  Level FlightAware
04:45PM 42.8890 -70.9960 207° Southwest 153 176 4,000  Level FlightAware
04:46PM 42.8710 -71.0080 206° Southwest 153 176 4,000  Level FlightAware
04:46PM 42.8510 -71.0210 205° Southwest 153 176 4,000  Level FlightAware
04:46PM 42.8360 -71.0310 206° Southwest 153 176 4,000  Level FlightAware
04:47PM 42.8170 -71.0440 207° Southwest 155 178 4,000  Level FlightAware
04:47PM 42.8010 -71.0590 215° Southwest 155 178 4,000  Level FlightAware
04:48PM 42.7840 -71.0760 216° Southwest 157 181 4,000 -480 Level FlightAware
04:48PM 42.7690 -71.0930 220° Southwest 174 200 3,600 -1,080 Descending FlightAware
04:49PM 42.7590 -71.1030 216° Southwest 181 208 3,300 -840 Descending FlightAware
04:49PM 42.7390 -71.1240 218° Southwest 172 198 3,000 -360 Descending FlightAware
04:49PM 42.7240 -71.1390 216° Southwest 161 185 3,000 -300 Level FlightAware
04:50PM 42.7140 -71.1490 216° Southwest 171 197 2,800 -1,380 Descending FlightAware
04:50PM 42.6920 -71.1620 203° Southwest 173 199 2,000 -1,560 Descending FlightAware
04:51PM 42.6750 -71.1740 207° Southwest 165 190 1,400 -900 Descending FlightAware
04:51PM 42.6500 -71.1910 207° Southwest 170 196 1,100 -480 Descending FlightAware
04:52PM 42.6350 -71.1990 201° Southwest 174 200 1,000  Descending FlightAware
04:52PM 42.6100 -71.2100 198° South 173 199 1,100 60 Climbing FlightAware
04:53PM 42.5890 -71.2180 196° South 175 201 1,100  Level FlightAware
04:53PM 42.5670 -71.2310 204° Southwest 177 204 1,100  Level FlightAware
04:54PM 42.5450 -71.2480 210° Southwest 179 206 1,100  Level FlightAware
04:54PM 42.5330 -71.2590 214° Southwest 178 205 1,100 -180 Level FlightAware
04:54PM 42.5180 -71.2720 213° Southwest 183 211 1,000 -240 Descending FlightAware
04:55PM 42.4980 -71.2930 218° Southwest 168 193 900 -240 Descending FlightAware
04:55PM 42.4880 -71.3060 224° Southwest 130 150 800 -120 Descending FlightAware
04:56PM 42.4750 -71.3180 214° Southwest 110 127 800  Level FlightAware
05:00PM 42.4667 -71.2833 170° South  Level FlightAware Approximate
05:01PM 42.4699 -71.2890 170° South  Level Estimated
05:02PM 42.4667 -71.2833 170° South  Level FlightAware Approximate
05:03PM 42.4699 -71.2890 170° South  Level Estimated